»·PEaware :: N529B KTOA-KVNY

N529B :: KTOA-KVNY

FLIGHT INFORMATION

Flight Status: Arrived
Operator: Privately registered:
United States
More flights under this callsign
Pilot: Kim B. (19519)
Aircraft: Unknown
(B29)
More flights by this aircraft type
Origin: KTOA Zamperini
United States
Destination: KVNY Van Nuys
United States
More flights between these airports :: More routes between these airports
Route: +
File this flight plan on PilotEdge
Remarks: CAT10
Altitude:
(Current/Filed)
0ft
Speed:
(Current/Filed)
0kts
Departed: 06-Oct-18 04:12 PM
Arrived: 06-Oct-18 04:53 PM
Distance/Time
Traveled:
26nm/0:41
Distance/Time
To Go:
Arrived

Flight Plot

Page will automatically refresh every two minutes.


Map Options




Map Legend


Flown Route
Filed Route
Departure Airport
Arrival Airport
Navaid (VOR, NDB)
Fix

Horizontal Profiles

Position Reports

Time Latitude Longitude Heading Altitude Ground
Speed
06-Oct-18 16:07 33.803347 -118.344051 39 105ft 0kts
06-Oct-18 16:08 33.802874 -118.343067 129 105ft 10kts
06-Oct-18 16:09 33.801762 -118.340164 128 105ft 16kts
06-Oct-18 16:10 33.798265 -118.334890 128 105ft 9kts
06-Oct-18 16:11 33.799062 -118.333307 37 105ft 0kts
06-Oct-18 16:12 33.799062 -118.333307 37 105ft 0kts
06-Oct-18 16:13 33.799062 -118.333307 37 105ft 0kts
06-Oct-18 16:14 33.800594 -118.334321 309 105ft 48kts
06-Oct-18 16:15 33.819479 -118.357451 0 699ft 106kts
06-Oct-18 16:16 33.841427 -118.331642 82 1412ft 140kts
06-Oct-18 16:17 33.846033 -118.278067 84 2220ft 183kts
06-Oct-18 16:18 33.867081 -118.218670 22 2463ft 238kts
06-Oct-18 16:19 33.894947 -118.270905 270 2324ft 240kts
06-Oct-18 16:20 33.866289 -118.335837 228 2316ft 216kts
06-Oct-18 16:21 33.817604 -118.334742 128 2370ft 195kts
06-Oct-18 16:29 33.803348 -118.344051 39 105ft 0kts
06-Oct-18 16:30 33.803348 -118.344051 39 105ft 0kts
06-Oct-18 16:31 33.803348 -118.344051 39 105ft 0kts
06-Oct-18 16:32 33.802315 -118.340994 128 105ft 15kts
06-Oct-18 16:33 33.799004 -118.335992 128 105ft 18kts
06-Oct-18 16:34 33.799124 -118.333259 38 105ft 0kts
06-Oct-18 16:35 33.799126 -118.333257 38 105ft 0kts
06-Oct-18 16:36 33.807274 -118.344388 308 109ft 117kts
06-Oct-18 16:37 33.835383 -118.344480 51 670ft 134kts
06-Oct-18 16:38 33.844704 -118.298655 79 1466ft 147kts
06-Oct-18 16:39 33.870825 -118.292472 280 2399ft 145kts
06-Oct-18 16:40 33.873607 -118.348690 273 2491ft 191kts
06-Oct-18 16:41 33.901803 -118.370962 33 2588ft 192kts
06-Oct-18 16:42 33.911240 -118.396557 168 2511ft 191kts
06-Oct-18 16:43 33.896978 -118.396583 185 2467ft 155kts
06-Oct-18 16:44 33.910274 -118.377566 348 2518ft 143kts
06-Oct-18 16:45 33.942693 -118.397005 329 2466ft 142kts
06-Oct-18 16:46 33.975588 -118.425866 323 2490ft 152kts
06-Oct-18 16:47 34.010815 -118.457284 323 2489ft 163kts
06-Oct-18 16:48 34.055531 -118.469596 359 2488ft 173kts
06-Oct-18 16:49 34.104651 -118.470643 353 2487ft 181kts
06-Oct-18 16:50 34.153089 -118.484507 341 2401ft 178kts
06-Oct-18 16:51 34.197863 -118.507963 331 1689ft 169kts
06-Oct-18 16:52 34.238665 -118.516505 352 1510ft 128kts
06-Oct-18 16:53 34.243398 -118.495098 171 1416ft 110kts
06-Oct-18 16:54 34.212350 -118.490797 174 783ft 74kts
06-Oct-18 16:55 34.208229 -118.490987 208 783ft 0kts
06-Oct-18 16:56 34.210458 -118.491566 356 783ft 20kts
06-Oct-18 16:57 34.216134 -118.492194 356 783ft 13kts
06-Oct-18 16:58 34.217151 -118.495317 279 783ft 14kts
06-Oct-18 16:59 34.218393 -118.496625 62 783ft 0kts
06-Oct-18 17:00 34.218393 -118.496625 62 783ft 0kts
06-Oct-18 17:01 34.218393 -118.496625 62 783ft 0kts
06-Oct-18 17:02 34.218393 -118.496625 62 783ft 0kts
06-Oct-18 17:03 34.218393 -118.496625 62 783ft 0kts
06-Oct-18 17:04 34.218393 -118.496625 62 783ft 0kts
06-Oct-18 17:05 34.218393 -118.496625 62 783ft 0kts
06-Oct-18 17:06 34.218393 -118.496625 62 783ft 0kts
06-Oct-18 17:07 34.218393 -118.496625 62 783ft 0kts
06-Oct-18 17:08 34.218393 -118.496625 62 783ft 0kts
06-Oct-18 17:09 34.218393 -118.496625 62 783ft 0kts
06-Oct-18 17:10 34.218393 -118.496625 62 783ft 0kts

Navigation Log

Ident Type
1. KTOA Airport
2. KVNY Airport